createdAt,value
2018-06-09T00:01:34.911Z,4.07
2018-06-09T00:04:04.251Z,4.00
2018-06-09T00:06:33.397Z,4.57
2018-06-09T00:09:02.557Z,4.20
2018-06-09T00:11:31.478Z,6.13
2018-06-09T00:14:00.970Z,4.83
2018-06-09T00:16:30.118Z,5.57
2018-06-09T00:18:59.273Z,3.90
2018-06-09T00:21:28.449Z,4.57
2018-06-09T00:23:57.646Z,4.70
2018-06-09T00:26:26.855Z,5.90
2018-06-09T00:28:56.014Z,5.30
2018-06-09T00:31:25.157Z,7.10
2018-06-09T00:33:54.313Z,4.13
2018-06-09T00:36:23.245Z,5.23
2018-06-09T00:38:52.634Z,4.07
2018-06-09T00:41:21.796Z,4.90
2018-06-09T00:43:50.967Z,5.10
2018-06-09T00:46:20.121Z,6.03
2018-06-09T00:48:49.285Z,4.63
2018-06-09T00:51:18.449Z,5.63
2018-06-09T00:53:47.602Z,4.67
2018-06-09T00:56:48.537Z,6.17
2018-06-09T00:59:17.673Z,4.50
2018-06-09T01:01:46.849Z,4.50
2018-06-09T01:04:16.865Z,4.00
2018-06-09T01:06:46.021Z,4.47
2018-06-09T01:09:15.195Z,5.83
2018-06-09T01:11:44.374Z,4.17
2018-06-09T01:14:13.550Z,4.60
2018-06-09T01:16:42.705Z,4.53
2018-06-09T01:19:11.857Z,5.67
2018-06-09T01:21:41.049Z,6.77
2018-06-09T01:24:10.309Z,4.33
2018-06-09T01:26:39.453Z,6.70
2018-06-09T01:29:08.649Z,7.27
2018-06-09T01:31:37.793Z,4.57
2018-06-09T01:34:06.972Z,7.20
2018-06-09T01:36:36.125Z,4.10
2018-06-09T01:39:08.366Z,6.20
2018-06-09T01:41:37.838Z,5.37
2018-06-09T01:44:07.017Z,5.47
2018-06-09T01:46:36.204Z,5.80
2018-06-09T01:49:05.370Z,4.77
2018-06-09T01:51:34.541Z,4.60
2018-06-09T01:54:03.726Z,4.33
2018-06-09T01:56:32.837Z,5.40
2018-06-09T01:59:01.999Z,5.37
2018-06-09T02:01:31.162Z,6.17
2018-06-09T02:04:00.360Z,5.23
2018-06-09T02:06:29.529Z,5.80
2018-06-09T02:08:58.689Z,6.20
2018-06-09T02:11:27.849Z,5.67
2018-06-09T02:13:57.020Z,5.57
2018-06-09T02:16:26.267Z,4.23
2018-06-09T02:18:55.418Z,5.13
2018-06-09T02:21:24.573Z,6.63
2018-06-09T02:23:53.742Z,5.90
2018-06-09T02:26:22.897Z,5.77
2018-06-09T02:28:52.047Z,6.53
2018-06-09T02:31:21.214Z,6.67
2018-06-09T02:33:50.451Z,5.43
2018-06-09T02:36:19.648Z,6.23
2018-06-09T02:38:48.930Z,5.57
2018-06-09T02:41:18.073Z,6.53
2018-06-09T02:43:47.221Z,5.57
2018-06-09T02:46:16.377Z,6.13
2018-06-09T02:48:45.535Z,5.73
2018-06-09T02:51:14.681Z,7.83
2018-06-09T02:53:43.853Z,6.97
2018-06-09T02:56:13.005Z,5.23
2018-06-09T02:58:42.206Z,5.97
2018-06-09T03:01:11.422Z,6.10
2018-06-09T03:03:40.602Z,7.57
2018-06-09T03:06:09.744Z,9.70
2018-06-09T03:08:38.897Z,7.27
2018-06-09T03:11:08.063Z,6.67
2018-06-09T03:13:37.310Z,7.13
2018-06-09T03:16:06.470Z,6.07
2018-06-09T03:18:35.612Z,6.53
2018-06-09T03:21:04.760Z,7.37
2018-06-09T03:23:33.793Z,8.47
2018-06-09T03:26:02.947Z,5.90
2018-06-09T03:28:32.089Z,6.17
2018-06-09T03:31:01.242Z,7.20
2018-06-09T03:33:30.401Z,6.33
2018-06-09T03:35:59.553Z,8.90
2018-06-09T03:38:28.745Z,7.47
2018-06-09T03:40:58.965Z,7.57
2018-06-09T03:43:28.162Z,8.27
2018-06-09T03:45:57.273Z,10.37
2018-06-09T03:48:26.439Z,7.53
2018-06-09T03:50:55.600Z,7.40
2018-06-09T03:53:24.753Z,9.10
2018-06-09T03:55:53.968Z,7.53
2018-06-09T03:58:26.212Z,9.77
2018-06-09T04:00:55.365Z,7.83
2018-06-09T04:03:24.644Z,9.43
2018-06-09T04:05:54.013Z,7.67
2018-06-09T04:08:23.161Z,7.60
2018-06-09T04:10:52.339Z,6.53
2018-06-09T04:13:21.482Z,7.33
2018-06-09T04:15:50.736Z,7.33
2018-06-09T04:18:19.933Z,8.63
2018-06-09T04:20:49.083Z,8.23
2018-06-09T04:23:18.222Z,7.77
2018-06-09T04:25:47.381Z,7.70
2018-06-09T04:28:16.549Z,9.10
2018-06-09T04:30:45.722Z,8.27
2018-06-09T04:33:14.886Z,7.90
2018-06-09T04:35:44.121Z,9.57
2018-06-09T04:38:13.275Z,6.80
2018-06-09T04:40:42.424Z,8.50
2018-06-09T04:43:11.569Z,7.83
2018-06-09T04:45:40.722Z,7.97
2018-06-09T04:48:09.985Z,8.57
2018-06-09T04:50:39.129Z,7.63
2018-06-09T04:53:08.269Z,7.93
2018-06-09T04:55:37.426Z,7.00
2018-06-09T04:58:06.661Z,7.13
2018-06-09T05:00:35.817Z,7.40
2018-06-09T05:03:04.965Z,8.67
2018-06-09T05:05:34.173Z,6.53
2018-06-09T05:08:03.335Z,8.30
2018-06-09T05:10:32.497Z,6.90
2018-06-09T05:13:01.697Z,7.33
2018-06-09T05:15:30.841Z,7.37
2018-06-09T05:18:00.007Z,7.40
2018-06-09T05:20:29.439Z,7.80
2018-06-09T05:22:58.594Z,9.87
2018-06-09T05:25:27.742Z,7.23
2018-06-09T05:27:56.913Z,8.97
2018-06-09T05:30:26.031Z,6.70
2018-06-09T05:32:55.541Z,6.87
2018-06-09T05:35:24.809Z,8.27
2018-06-09T05:37:53.948Z,6.47
2018-06-09T05:40:23.137Z,6.80
2018-06-09T05:42:52.285Z,6.97
2018-06-09T05:45:21.728Z,8.10
2018-06-09T05:47:50.882Z,6.63
2018-06-09T05:50:20.037Z,7.50
2018-06-09T05:52:49.197Z,7.93
2018-06-09T05:55:18.344Z,6.70
2018-06-09T05:57:47.828Z,5.87
2018-06-09T06:00:16.969Z,6.40
2018-06-09T06:02:46.109Z,7.57
2018-06-09T06:05:15.262Z,5.90
2018-06-09T06:07:44.421Z,6.23
2018-06-09T06:10:13.569Z,6.40
2018-06-09T06:12:42.738Z,6.40
2018-06-09T06:15:12.201Z,7.30
2018-06-09T06:17:41.349Z,6.30
2018-06-09T06:20:10.488Z,5.90
2018-06-09T06:22:39.661Z,5.70
2018-06-09T06:25:08.802Z,5.53
2018-06-09T06:27:37.958Z,4.60
2018-06-09T06:30:07.189Z,5.43
2018-06-09T06:32:36.097Z,6.30
2018-06-09T06:35:05.299Z,5.67
2018-06-09T06:37:34.449Z,4.70
2018-06-09T06:40:03.605Z,8.47
2018-06-09T06:42:33.069Z,5.60
2018-06-09T06:45:02.230Z,4.73
2018-06-09T06:47:31.367Z,5.83
2018-06-09T06:50:00.583Z,5.63
2018-06-09T06:52:29.765Z,6.23
2018-06-09T06:54:58.925Z,7.30
2018-06-09T06:57:28.157Z,5.27
2018-06-09T06:59:57.557Z,7.70
2018-06-09T07:02:26.697Z,6.10
2018-06-09T07:04:55.849Z,6.17
2018-06-09T07:07:24.999Z,5.50
2018-06-09T07:09:54.149Z,8.13
2018-06-09T07:12:23.317Z,6.83
2018-06-09T07:14:52.466Z,8.80
2018-06-09T07:17:22.124Z,5.13
2018-06-09T07:19:51.284Z,7.50
2018-06-09T07:22:20.443Z,9.17
2018-06-09T07:24:49.602Z,6.83
2018-06-09T07:27:18.749Z,7.77
2018-06-09T07:29:47.966Z,9.30
2018-06-09T07:32:17.132Z,7.03
2018-06-09T07:34:46.306Z,8.07
2018-06-09T07:37:15.553Z,7.57
2018-06-09T07:39:44.711Z,8.27
2018-06-09T07:42:13.873Z,9.80
2018-06-09T07:44:43.013Z,7.27
2018-06-09T07:47:12.185Z,10.50
2018-06-09T07:49:41.609Z,8.70
2018-06-09T07:52:10.762Z,10.07
2018-06-09T07:54:39.913Z,8.30
2018-06-09T07:57:09.092Z,10.00
2018-06-09T07:59:38.297Z,7.00
2018-06-09T08:02:07.402Z,9.83
2018-06-09T08:04:36.610Z,8.87
2018-06-09T08:07:05.811Z,8.50
2018-06-09T08:09:34.976Z,8.63
2018-06-09T08:12:04.129Z,8.90
2018-06-09T08:14:33.289Z,11.07
2018-06-09T08:17:02.510Z,9.90
2018-06-09T08:19:31.708Z,9.23
2018-06-09T08:22:00.831Z,13.47
2018-06-09T08:24:29.063Z,8.60
2018-06-09T08:26:58.257Z,10.77
2018-06-09T08:29:27.442Z,9.00
2018-06-09T08:31:56.597Z,10.03
2018-06-09T08:34:25.745Z,10.03
2018-06-09T08:36:54.957Z,11.53
2018-06-09T08:39:24.129Z,9.27
2018-06-09T08:41:53.337Z,8.03
2018-06-09T08:44:22.746Z,10.07
2018-06-09T08:46:51.945Z,10.37
2018-06-09T08:49:21.253Z,9.73
2018-06-09T08:51:50.581Z,10.40
2018-06-09T08:54:19.731Z,9.77
2018-06-09T08:56:48.894Z,8.80
2018-06-09T08:59:18.165Z,8.03
2018-06-09T09:01:47.320Z,11.73
2018-06-09T09:04:16.486Z,10.23
2018-06-09T09:06:45.738Z,10.10
2018-06-09T09:09:14.947Z,10.23
2018-06-09T09:11:44.142Z,11.43
2018-06-09T09:14:13.333Z,8.13
2018-06-09T09:16:42.497Z,10.55
2018-06-09T09:19:11.661Z,8.55
2018-06-09T09:21:40.820Z,8.88
2018-06-09T09:24:10.017Z,8.30
2018-06-09T09:26:39.174Z,11.53
2018-06-09T09:29:08.409Z,9.07
2018-06-09T09:31:37.608Z,9.53
2018-06-09T09:34:06.805Z,8.00
2018-06-09T09:36:35.973Z,8.70
2018-06-09T09:39:08.633Z,9.97
2018-06-09T09:41:37.901Z,9.50
2018-06-09T09:44:07.201Z,9.23
2018-06-09T09:46:36.366Z,8.20
2018-06-09T09:49:05.859Z,8.83
2018-06-09T09:51:35.021Z,8.93
2018-06-09T09:54:04.185Z,8.28
2018-06-09T09:56:33.369Z,9.33
2018-06-09T09:59:02.522Z,9.63
2018-06-09T10:01:31.662Z,8.63
2018-06-09T10:04:00.869Z,9.23
2018-06-09T10:06:30.087Z,8.18
2018-06-09T10:08:59.233Z,7.80
2018-06-09T10:11:28.399Z,10.08
2018-06-09T10:13:57.541Z,9.80
2018-06-09T10:16:26.736Z,9.33
2018-06-09T10:18:55.953Z,8.60
2018-06-09T10:21:25.264Z,10.73
2018-06-09T10:23:54.405Z,10.13
2018-06-09T10:26:23.577Z,8.28
2018-06-09T10:28:52.765Z,9.70
2018-06-09T10:31:21.946Z,8.77
2018-06-09T10:33:51.125Z,9.93
2018-06-09T10:36:20.273Z,7.50
2018-06-09T10:38:49.530Z,8.98
2018-06-09T10:41:18.754Z,8.38
2018-06-09T10:43:47.941Z,7.45
2018-06-09T10:46:17.093Z,11.70
2018-06-09T10:48:46.269Z,8.53
2018-06-09T10:51:15.432Z,7.05
2018-06-09T10:53:44.633Z,7.42
2018-06-09T10:56:13.814Z,7.37
2018-06-09T10:58:43.029Z,8.70
2018-06-09T11:01:12.239Z,9.95
2018-06-09T11:03:41.398Z,9.70
2018-06-09T11:06:10.615Z,11.28
2018-06-09T11:08:39.833Z,8.30
2018-06-09T11:11:09.017Z,8.85
2018-06-09T11:13:38.216Z,7.70
2018-06-09T11:16:07.398Z,8.13
2018-06-09T11:18:36.602Z,8.33
2018-06-09T11:21:05.757Z,9.60
2018-06-09T11:23:35.030Z,8.43
2018-06-09T11:26:04.201Z,8.20
2018-06-09T11:28:33.353Z,8.23
2018-06-09T11:31:02.553Z,8.10
2018-06-09T11:33:31.768Z,8.15
2018-06-09T11:36:00.930Z,7.25
2018-06-09T11:38:30.077Z,7.65
2018-06-09T11:40:59.225Z,11.15
2018-06-09T11:43:28.397Z,8.85
2018-06-09T11:45:57.549Z,8.00
2018-06-09T11:48:26.702Z,9.13
2018-06-09T11:50:55.846Z,7.35
2018-06-09T11:53:24.867Z,7.80
2018-06-09T11:55:54.039Z,8.03
2018-06-09T11:58:23.193Z,8.93
2018-06-09T12:00:52.342Z,8.10
2018-06-09T12:03:21.553Z,8.15
2018-06-09T12:05:50.701Z,7.20
2018-06-09T12:08:19.853Z,7.87
2018-06-09T12:10:49.021Z,9.58
2018-06-09T12:13:18.318Z,8.45
2018-06-09T12:15:47.465Z,7.70
2018-06-09T12:18:16.648Z,8.35
2018-06-09T12:20:45.812Z,7.47
2018-06-09T12:23:14.957Z,7.75
2018-06-09T12:25:44.138Z,7.95
2018-06-09T12:28:13.306Z,7.47
2018-06-09T12:30:42.701Z,6.97
2018-06-09T12:33:11.879Z,9.13
2018-06-09T12:35:41.034Z,9.88
2018-06-09T12:38:10.255Z,8.10
2018-06-09T12:40:39.422Z,7.83
2018-06-09T12:43:08.590Z,7.25
2018-06-09T12:45:37.734Z,8.25
2018-06-09T12:48:06.879Z,8.05
2018-06-09T12:50:35.925Z,8.33
2018-06-09T12:53:05.104Z,7.47
2018-06-09T12:55:34.429Z,8.20
2018-06-09T12:58:03.877Z,9.30
2018-06-09T13:00:32.796Z,7.05
2018-06-09T13:03:02.016Z,8.48
2018-06-09T13:05:31.161Z,7.42
2018-06-09T13:08:00.332Z,7.40
2018-06-09T13:10:29.466Z,9.03
2018-06-09T13:12:58.617Z,7.10
2018-06-09T13:15:27.778Z,7.30
2018-06-09T13:17:56.952Z,10.08
2018-06-09T13:20:26.167Z,6.90
2018-06-09T13:22:55.321Z,8.55
2018-06-09T13:25:24.486Z,8.40
2018-06-09T13:27:53.638Z,9.15
2018-06-09T13:30:22.802Z,7.08
2018-06-09T13:32:51.992Z,8.33
2018-06-09T13:35:21.130Z,8.43
2018-06-09T13:37:50.276Z,7.35
2018-06-09T13:40:19.449Z,14.98
2018-06-09T13:42:48.702Z,9.30
2018-06-09T13:45:17.862Z,7.45
2018-06-09T13:47:47.035Z,8.75
2018-06-09T13:50:16.180Z,9.48
2018-06-09T13:52:45.333Z,6.30
2018-06-09T13:55:14.481Z,6.40
2018-06-09T13:57:43.650Z,9.63
2018-06-09T14:00:12.817Z,8.13
2018-06-09T14:02:41.972Z,9.33
2018-06-09T14:05:11.157Z,8.35
2018-06-09T14:07:40.305Z,11.28
2018-06-09T14:10:09.585Z,6.65
2018-06-09T14:12:38.743Z,7.50
2018-06-09T14:15:07.882Z,6.67
2018-06-09T14:17:37.183Z,7.75
2018-06-09T14:20:06.334Z,6.37
2018-06-09T14:22:35.485Z,9.35
2018-06-09T14:25:04.657Z,7.62
2018-06-09T14:27:33.816Z,8.43
2018-06-09T14:30:03.237Z,8.80
2018-06-09T14:32:32.408Z,6.78
2018-06-09T14:35:01.569Z,9.03
2018-06-09T14:37:30.748Z,8.83
2018-06-09T14:39:59.913Z,8.48
2018-06-09T14:42:29.108Z,10.55
2018-06-09T14:44:58.301Z,8.20
2018-06-09T14:47:27.450Z,7.40
2018-06-09T14:49:56.617Z,6.17
2018-06-09T14:52:25.784Z,6.15
2018-06-09T14:54:55.141Z,10.00
2018-06-09T14:57:24.456Z,10.32
2018-06-09T14:59:53.620Z,10.15
2018-06-09T15:02:22.829Z,6.70
2018-06-09T15:04:51.974Z,11.12
2018-06-09T15:07:21.137Z,7.95
2018-06-09T15:16:54.997Z,8.80
2018-06-09T15:19:24.154Z,7.50
2018-06-09T15:21:53.350Z,8.35
2018-06-09T15:24:22.511Z,8.00
2018-06-09T15:26:51.665Z,9.50
2018-06-09T15:29:20.814Z,9.50
2018-06-09T15:31:50.127Z,8.23
2018-06-09T15:34:19.280Z,8.40
2018-06-09T15:36:48.496Z,8.33
2018-06-09T15:39:17.664Z,11.20
2018-06-09T15:41:46.819Z,11.28
2018-06-09T15:44:15.953Z,10.63
2018-06-09T15:46:45.123Z,7.80
2018-06-09T15:49:14.277Z,9.13
2018-06-09T15:51:43.489Z,8.35
2018-06-09T15:54:12.634Z,9.90
2018-06-09T15:56:41.797Z,7.95
2018-06-09T15:59:10.965Z,7.30
2018-06-09T16:01:40.338Z,10.78
2018-06-09T16:04:09.524Z,6.92
2018-06-09T16:06:38.745Z,9.90
2018-06-09T16:09:08.935Z,12.37
2018-06-09T16:11:38.077Z,11.03
2018-06-09T16:14:07.256Z,9.15
2018-06-09T16:16:36.461Z,9.80
2018-06-09T16:19:05.661Z,11.08
2018-06-09T16:21:34.869Z,9.25
2018-06-09T16:24:04.054Z,10.83
2018-06-09T16:26:33.254Z,11.97
2018-06-09T16:29:02.521Z,10.37
2018-06-09T16:31:31.838Z,9.40
2018-06-09T16:34:01.037Z,11.40
2018-06-09T16:36:30.197Z,9.75
2018-06-09T16:38:59.362Z,13.17
2018-06-09T16:41:28.525Z,11.78
2018-06-09T16:43:57.745Z,12.37
2018-06-09T16:46:26.943Z,12.70
2018-06-09T16:48:56.097Z,11.43
2018-06-09T16:51:25.334Z,10.13
2018-06-09T16:53:54.536Z,9.23
2018-06-09T16:56:23.732Z,10.03
2018-06-09T16:58:52.916Z,12.27
2018-06-09T17:01:22.123Z,9.40
2018-06-09T17:03:51.342Z,12.40
2018-06-09T17:06:20.578Z,11.47
2018-06-09T17:08:49.829Z,11.37
2018-06-09T17:11:18.982Z,10.87
2018-06-09T17:13:48.147Z,10.67
2018-06-09T17:16:17.374Z,9.47
2018-06-09T17:18:46.698Z,9.63
2018-06-09T17:21:15.850Z,10.00
2018-06-09T17:23:45.100Z,9.90
2018-06-09T17:26:14.306Z,8.77
2018-06-09T17:28:43.461Z,9.07
2018-06-09T17:31:12.696Z,10.10
2018-06-09T17:33:42.038Z,9.47
2018-06-09T17:36:11.313Z,9.83
2018-06-09T17:38:40.457Z,8.60
2018-06-09T17:41:09.701Z,9.60
2018-06-09T17:43:38.902Z,10.73
2018-06-09T17:46:08.065Z,13.50
2018-06-09T17:51:47.759Z,11.77
2018-06-09T17:54:17.157Z,9.40
2018-06-09T17:56:46.651Z,9.00
2018-06-09T17:59:16.000Z,8.87
2018-06-09T18:01:46.492Z,10.27
2018-06-09T18:04:16.035Z,12.53
2018-06-09T18:06:45.444Z,8.50
2018-06-09T18:09:14.886Z,11.33
2018-06-09T18:11:44.247Z,9.43
2018-06-09T18:14:13.661Z,10.00
2018-06-09T18:16:43.109Z,10.23
2018-06-09T18:19:12.621Z,10.90
2018-06-09T18:21:42.065Z,10.77
2018-06-09T18:24:11.415Z,10.00
2018-06-09T18:26:40.893Z,11.03
2018-06-09T18:29:10.352Z,9.80
2018-06-09T18:31:39.780Z,10.10
2018-06-09T18:34:09.153Z,10.43
2018-06-09T18:36:38.562Z,9.37
2018-06-09T18:39:10.029Z,10.57
2018-06-09T18:41:39.475Z,10.00
2018-06-09T18:44:08.949Z,9.77
2018-06-09T18:46:38.451Z,10.40
2018-06-09T18:49:07.787Z,12.20
2018-06-09T18:51:37.126Z,11.03
2018-06-09T18:54:07.581Z,13.17
2018-06-09T18:56:38.040Z,11.20
2018-06-09T18:59:09.043Z,11.73
2018-06-09T19:01:38.958Z,10.97
2018-06-09T19:04:08.629Z,12.93
2018-06-09T19:06:38.062Z,14.83
2018-06-09T19:09:10.066Z,13.80
2018-06-09T19:11:39.533Z,16.90
2018-06-09T19:14:08.987Z,12.07
2018-06-09T19:16:38.854Z,14.50
2018-06-09T19:19:08.281Z,13.77
2018-06-09T19:21:38.511Z,11.80
2018-06-09T19:24:08.429Z,13.03
2018-06-09T19:26:37.825Z,14.33
2018-06-09T19:29:07.258Z,11.53
2018-06-09T19:31:36.777Z,15.97
2018-06-09T19:34:06.205Z,13.17
2018-06-09T19:36:36.748Z,11.43
2018-06-09T19:39:08.533Z,11.37
2018-06-09T19:41:38.106Z,13.13
2018-06-09T19:44:07.534Z,13.43
2018-06-09T19:46:37.062Z,12.30
2018-06-09T19:49:06.976Z,14.10
2018-06-09T19:51:36.391Z,9.90
2018-06-09T19:54:05.829Z,12.57
2018-06-09T19:56:35.266Z,12.37
2018-06-09T19:59:04.813Z,13.87
2018-06-09T20:01:34.186Z,14.17
2018-06-09T20:04:03.611Z,13.07
2018-06-09T20:06:33.221Z,14.00
2018-06-09T20:09:02.727Z,12.83
2018-06-09T20:11:32.156Z,15.60
2018-06-09T20:14:02.455Z,12.77
2018-06-09T20:16:31.872Z,12.33
2018-06-09T20:19:01.341Z,11.50
2018-06-09T20:21:30.739Z,15.20
2018-06-09T20:24:00.282Z,11.83
2018-06-09T20:26:29.852Z,11.03
2018-06-09T20:28:59.295Z,15.17
2018-06-09T20:31:28.737Z,13.17
2018-06-09T20:33:58.441Z,11.67
2018-06-09T20:36:28.692Z,11.67
2018-06-09T20:38:58.660Z,13.20
2018-06-09T20:41:28.048Z,10.30
2018-06-09T20:43:57.443Z,11.13
2018-06-09T20:46:27.079Z,14.57
2018-06-09T20:48:56.996Z,13.87
2018-06-09T20:51:26.739Z,11.27
2018-06-09T20:53:56.751Z,13.37
2018-06-09T20:56:26.288Z,14.40
2018-06-09T20:58:56.051Z,12.73
2018-06-09T21:01:25.929Z,12.17
2018-06-09T21:03:55.688Z,12.00
2018-06-09T21:06:25.409Z,12.30
2018-06-09T21:08:54.976Z,14.73
2018-06-09T21:11:24.760Z,13.27
2018-06-09T21:13:54.493Z,12.40
2018-06-09T21:16:24.194Z,12.70
2018-06-09T21:18:53.769Z,15.13
2018-06-09T21:21:23.459Z,12.80
2018-06-09T21:23:53.434Z,7.00
2018-06-09T21:26:23.177Z,7.63
2018-06-09T21:28:56.580Z,13.53
2018-06-09T21:31:31.438Z,12.73
2018-06-09T21:34:21.781Z,14.20
2018-06-09T21:36:57.662Z,16.07
2018-06-09T21:39:33.181Z,17.77
2018-06-09T21:42:08.317Z,15.40
2018-06-09T21:44:41.966Z,22.23
2018-06-09T21:47:11.694Z,17.47
2018-06-09T21:49:41.265Z,17.23
2018-06-09T21:52:10.851Z,18.00
2018-06-09T21:54:40.271Z,18.53
2018-06-09T21:57:09.881Z,19.43
2018-06-09T21:59:39.367Z,18.87
2018-06-09T22:02:09.043Z,20.27
2018-06-09T22:04:38.630Z,16.40
2018-06-09T22:07:08.052Z,17.30
2018-06-09T22:09:37.643Z,18.80
2018-06-09T22:12:07.074Z,17.73
2018-06-09T22:14:36.547Z,17.30
2018-06-09T22:17:05.943Z,19.97
2018-06-09T22:19:35.417Z,19.53
2018-06-09T22:22:05.126Z,22.33
2018-06-09T22:24:34.460Z,18.60
2018-06-09T22:27:03.802Z,19.50
2018-06-09T22:29:33.508Z,21.43
2018-06-09T22:32:03.277Z,19.17
2018-06-09T22:34:32.805Z,22.17
2018-06-09T22:37:02.232Z,19.87
2018-06-09T22:39:31.694Z,20.33
2018-06-09T22:42:01.127Z,17.60
2018-06-09T22:44:30.509Z,18.07
2018-06-09T22:46:59.862Z,18.03
2018-06-09T22:49:29.367Z,17.33
2018-06-09T22:51:58.837Z,11.57
2018-06-09T22:54:28.169Z,13.10
2018-06-09T22:56:57.514Z,11.03
2018-06-09T22:59:26.845Z,13.87
2018-06-09T23:01:56.334Z,13.80
2018-06-09T23:04:25.663Z,12.20
2018-06-09T23:06:55.178Z,16.97
2018-06-09T23:09:24.701Z,13.20
2018-06-09T23:11:54.195Z,12.23
2018-06-09T23:14:23.788Z,12.73
2018-06-09T23:16:53.727Z,12.47
2018-06-09T23:19:23.195Z,15.03
2018-06-09T23:21:52.592Z,12.87
2018-06-09T23:24:21.999Z,12.57
2018-06-09T23:26:51.526Z,12.93
2018-06-09T23:29:20.959Z,12.17
2018-06-09T23:31:50.363Z,15.60
2018-06-09T23:34:19.738Z,13.10
2018-06-09T23:36:49.186Z,11.80
2018-06-09T23:39:18.538Z,10.63
2018-06-09T23:41:47.863Z,13.43
2018-06-09T23:44:17.182Z,13.37
2018-06-09T23:46:46.526Z,13.70
2018-06-09T23:49:15.847Z,13.17
2018-06-09T23:51:45.198Z,12.60
2018-06-09T23:54:14.546Z,12.97
2018-06-09T23:56:44.142Z,11.57
2018-06-09T23:59:13.473Z,11.63
